createdAt,value
2019-01-20T00:00:31.148Z,100580.07
2019-01-20T00:02:59.645Z,100574.13
2019-01-20T00:05:28.645Z,100567.81
2019-01-20T00:07:57.100Z,100566.72
2019-01-20T00:10:25.577Z,100567.50
2019-01-20T00:12:54.349Z,100564.12
2019-01-20T00:15:23.215Z,100568.66
2019-01-20T00:17:51.954Z,100579.54
2019-01-20T00:20:22.256Z,100572.92
2019-01-20T00:22:53.312Z,100574.31
2019-01-20T00:25:21.743Z,100570.05
2019-01-20T00:27:50.316Z,100564.22
2019-01-20T00:30:20.719Z,100565.70
2019-01-20T00:32:49.354Z,100557.95
2019-01-20T00:35:17.881Z,100564.28
2019-01-20T00:37:46.330Z,100560.80
2019-01-20T00:40:16.701Z,100559.63
2019-01-20T00:42:45.694Z,100562.84
2019-01-20T00:45:16.670Z,100559.63
2019-01-20T00:47:45.171Z,100560.58
2019-01-20T00:50:16.238Z,100558.64
2019-01-20T00:52:45.074Z,100562.06
2019-01-20T00:55:18.248Z,100558.20
2019-01-20T00:57:52.706Z,100562.41
2019-01-20T01:00:24.532Z,100561.97
2019-01-20T01:02:56.007Z,100559.56
2019-01-20T01:05:24.912Z,100563.89
2019-01-20T01:07:57.929Z,100565.82
2019-01-20T01:10:26.596Z,100557.50
2019-01-20T01:12:58.552Z,100556.38
2019-01-20T01:15:27.234Z,100554.39
2019-01-20T01:17:55.860Z,100562.02
2019-01-20T01:20:26.437Z,100566.09
2019-01-20T01:22:54.822Z,100557.56
2019-01-20T01:25:23.433Z,100555.40
2019-01-20T01:27:53.480Z,100556.11
2019-01-20T01:30:25.510Z,100554.52
2019-01-20T01:32:55.030Z,100557.91
2019-01-20T01:35:23.474Z,100556.24
2019-01-20T01:37:52.020Z,100553.91
2019-01-20T01:40:21.082Z,100558.65
2019-01-20T01:42:51.715Z,100550.66
2019-01-20T01:45:23.306Z,100551.17
2019-01-20T01:47:52.098Z,100554.75
2019-01-20T01:50:20.675Z,100547.17
2019-01-20T01:52:50.487Z,100551.09
2019-01-20T01:55:18.871Z,100545.75
2019-01-20T01:57:47.335Z,100545.31
2019-01-20T02:00:18.714Z,100545.65
2019-01-20T02:02:50.289Z,100548.48
2019-01-20T02:05:19.777Z,100539.72
2019-01-20T02:07:48.258Z,100546.65
2019-01-20T02:10:18.979Z,100543.23
2019-01-20T02:12:49.761Z,100544.75
2019-01-20T02:15:20.959Z,100547.48
2019-01-20T02:17:50.261Z,100551.30
2019-01-20T02:20:23.574Z,100544.39
2019-01-20T02:22:52.359Z,100545.13
2019-01-20T02:25:21.044Z,100542.97
2019-01-20T02:27:51.187Z,100546.38
2019-01-20T02:30:22.266Z,100550.41
2019-01-20T02:32:50.710Z,100547.62
2019-01-20T02:35:19.256Z,100549.98
2019-01-20T02:37:47.626Z,100545.27
2019-01-20T02:40:17.774Z,100542.29
2019-01-20T02:42:46.231Z,100541.59
2019-01-20T02:45:16.184Z,100548.73
2019-01-20T02:47:44.793Z,100544.57
2019-01-20T02:50:15.797Z,100550.56
2019-01-20T02:52:44.219Z,100546.15
2019-01-20T02:55:13.114Z,100543.25
2019-01-20T02:57:41.613Z,100549.24
2019-01-20T03:00:16.079Z,100549.17
2019-01-20T03:02:46.792Z,100543.58
2019-01-20T03:05:15.898Z,100547.98
2019-01-20T03:07:44.426Z,100548.20
2019-01-20T03:10:14.558Z,100542.14
2019-01-20T03:12:43.036Z,100547.28
2019-01-20T03:15:13.719Z,100548.20
2019-01-20T03:17:42.224Z,100546.03
2019-01-20T03:20:13.791Z,100549.30
2019-01-20T03:22:42.244Z,100552.20
2019-01-20T03:25:13.629Z,100554.44
2019-01-20T03:27:42.144Z,100548.41
2019-01-20T03:30:14.163Z,100549.30
2019-01-20T03:32:42.604Z,100549.27
2019-01-20T03:35:12.379Z,100548.19
2019-01-20T03:37:41.014Z,100551.17
2019-01-20T03:40:12.530Z,100549.30
2019-01-20T03:42:41.114Z,100544.19
2019-01-20T03:45:15.588Z,100538.27
2019-01-20T03:47:44.438Z,100540.92
2019-01-20T03:50:15.372Z,100542.50
2019-01-20T03:52:43.968Z,100541.42
2019-01-20T03:55:22.096Z,100549.73
2019-01-20T03:57:56.087Z,100547.27
2019-01-20T04:00:25.344Z,100543.66
2019-01-20T04:02:57.261Z,100545.79
2019-01-20T04:05:27.001Z,100542.41
2019-01-20T04:07:55.446Z,100545.56
2019-01-20T04:10:24.045Z,100540.98
2019-01-20T04:12:52.573Z,100546.16
2019-01-20T04:15:21.907Z,100547.23
2019-01-20T04:17:50.333Z,100545.17
2019-01-20T04:20:20.899Z,100549.92
2019-01-20T04:22:49.372Z,100549.85
2019-01-20T04:25:19.813Z,100549.58
2019-01-20T04:27:48.400Z,100545.77
2019-01-20T04:30:24.199Z,100543.66
2019-01-20T04:32:57.454Z,100544.96
2019-01-20T04:35:26.036Z,100545.03
2019-01-20T04:37:55.131Z,100546.21
2019-01-20T04:40:26.837Z,100549.84
2019-01-20T04:42:55.430Z,100547.14
2019-01-20T04:45:24.856Z,100546.22
2019-01-20T04:47:53.697Z,100552.06
2019-01-20T04:50:23.981Z,100549.72
2019-01-20T04:52:53.174Z,100556.98
2019-01-20T04:55:21.712Z,100551.29
2019-01-20T04:57:51.773Z,100554.11
2019-01-20T05:00:25.171Z,100561.45
2019-01-20T05:02:53.834Z,100557.69
2019-01-20T05:05:22.245Z,100561.03
2019-01-20T05:07:50.706Z,100556.60
2019-01-20T05:10:19.794Z,100563.73
2019-01-20T05:12:48.533Z,100555.41
2019-01-20T05:15:19.911Z,100558.03
2019-01-20T05:17:48.503Z,100557.06
2019-01-20T05:20:18.401Z,100562.77
2019-01-20T05:22:46.865Z,100561.88
2019-01-20T05:25:15.645Z,100563.38
2019-01-20T05:27:44.091Z,100561.44
2019-01-20T05:30:18.054Z,100564.27
2019-01-20T05:32:46.632Z,100571.47
2019-01-20T05:35:15.164Z,100570.54
2019-01-20T05:37:43.660Z,100563.38
2019-01-20T05:40:18.282Z,100568.02
2019-01-20T05:42:47.415Z,100568.20
2019-01-20T05:45:18.411Z,100565.47
2019-01-20T05:47:47.193Z,100565.06
2019-01-20T05:50:15.999Z,100564.75
2019-01-20T05:52:47.427Z,100567.73
2019-01-20T05:55:16.474Z,100568.05
2019-01-20T05:57:44.962Z,100571.85
2019-01-20T06:00:27.013Z,100569.89
2019-01-20T06:02:56.819Z,100571.91
2019-01-20T06:05:30.838Z,100567.59
2019-01-20T06:08:00.879Z,100565.10
2019-01-20T06:10:33.627Z,100568.05
2019-01-20T06:13:02.565Z,100569.03
2019-01-20T06:15:31.121Z,100570.92
2019-01-20T06:18:10.240Z,100572.35
2019-01-20T06:20:39.617Z,100568.53
2019-01-20T06:23:08.533Z,100573.58
2019-01-20T06:25:38.749Z,100570.31
2019-01-20T06:28:12.503Z,100576.41
2019-01-20T06:30:42.874Z,100575.67
2019-01-20T06:33:16.693Z,100571.92
2019-01-20T06:35:47.337Z,100575.22
2019-01-20T06:38:15.819Z,100579.83
2019-01-20T06:40:49.778Z,100586.90
2019-01-20T06:43:21.774Z,100585.35
2019-01-20T06:45:53.221Z,100584.12
2019-01-20T06:48:23.780Z,100584.69
2019-01-20T06:50:56.786Z,100585.37
2019-01-20T06:53:26.059Z,100589.07
2019-01-20T06:55:54.837Z,100596.91
2019-01-20T06:58:33.434Z,100596.95
2019-01-20T07:01:03.537Z,100602.30
2019-01-20T07:03:33.715Z,100604.80
2019-01-20T07:06:02.289Z,100605.72
2019-01-20T07:08:31.999Z,100608.92
2019-01-20T07:11:00.453Z,100615.17
2019-01-20T07:13:28.938Z,100616.73
2019-01-20T07:15:57.568Z,100623.77
2019-01-20T07:18:26.028Z,100622.20
2019-01-20T07:20:54.470Z,100622.44
2019-01-20T07:23:24.473Z,100620.78
2019-01-20T07:25:52.940Z,100621.98
2019-01-20T07:28:21.374Z,100628.44
2019-01-20T07:30:49.880Z,100631.94
2019-01-20T07:33:18.460Z,100635.62
2019-01-20T07:35:48.529Z,100637.64
2019-01-20T07:38:17.190Z,100646.52
2019-01-20T07:40:45.720Z,100644.51
2019-01-20T07:43:17.088Z,100646.69
2019-01-20T07:45:44.327Z,100648.70
2019-01-20T07:48:12.791Z,100657.28
2019-01-20T07:50:41.578Z,100656.18
2019-01-20T07:53:13.224Z,100663.11
2019-01-20T07:55:43.546Z,100663.97
2019-01-20T07:58:12.239Z,100669.19
2019-01-20T08:00:41.203Z,100675.82
2019-01-20T08:03:09.715Z,100679.39
2019-01-20T08:05:38.339Z,100675.78
2019-01-20T08:08:07.048Z,100680.52
2019-01-20T08:10:37.350Z,100678.20
2019-01-20T08:13:06.258Z,100678.21
2019-01-20T08:15:35.002Z,100682.74
2019-01-20T08:18:03.688Z,100692.56
2019-01-20T08:20:42.816Z,100691.21
2019-01-20T08:23:15.702Z,100693.30
2019-01-20T08:25:44.179Z,100697.06
2019-01-20T08:28:14.336Z,100701.08
2019-01-20T08:30:42.715Z,100695.21
2019-01-20T08:33:11.549Z,100700.32
2019-01-20T08:35:41.589Z,100697.30
2019-01-20T08:38:10.197Z,100699.44
2019-01-20T08:40:38.658Z,100701.14
2019-01-20T08:43:07.099Z,100700.81
2019-01-20T08:45:41.417Z,100705.55
2019-01-20T08:48:15.462Z,100699.38
2019-01-20T08:50:44.498Z,100707.13
2019-01-20T08:53:12.999Z,100707.52
2019-01-20T08:55:41.547Z,100714.31
2019-01-20T08:58:11.813Z,100721.91
2019-01-20T09:00:40.685Z,100725.94
2019-01-20T09:03:09.366Z,100719.79
2019-01-20T09:05:42.392Z,100724.48
2019-01-20T09:08:12.500Z,100729.04
2019-01-20T09:10:44.607Z,100732.34
2019-01-20T09:13:16.816Z,100743.66
2019-01-20T09:15:45.309Z,100742.23
2019-01-20T09:18:13.893Z,100743.52
2019-01-20T09:20:42.422Z,100744.73
2019-01-20T09:23:11.251Z,100744.34
2019-01-20T09:25:39.773Z,100747.10
2019-01-20T09:28:08.391Z,100752.91
2019-01-20T09:30:39.635Z,100754.28
2019-01-20T09:33:08.058Z,100754.27
2019-01-20T09:35:36.495Z,100762.30
2019-01-20T09:38:05.666Z,100761.41
2019-01-20T09:40:34.202Z,100770.50
2019-01-20T09:43:02.661Z,100767.85
2019-01-20T09:45:32.120Z,100769.07
2019-01-20T09:48:00.552Z,100767.43
2019-01-20T09:50:29.055Z,100770.25
2019-01-20T09:52:59.648Z,100770.50
2019-01-20T09:55:28.067Z,100769.16
2019-01-20T09:57:56.532Z,100776.30
2019-01-20T10:00:31.060Z,100779.09
2019-01-20T10:02:59.530Z,100780.69
2019-01-20T10:05:28.648Z,100784.84
2019-01-20T10:07:57.070Z,100790.84
2019-01-20T10:10:25.491Z,100786.70
2019-01-20T10:12:53.962Z,100783.42
2019-01-20T10:15:22.574Z,100785.03
2019-01-20T10:17:51.079Z,100787.16
2019-01-20T10:20:25.501Z,100786.59
2019-01-20T10:22:53.919Z,100793.05
2019-01-20T10:25:22.424Z,100786.70
2019-01-20T10:27:50.986Z,100787.75
2019-01-20T10:30:27.838Z,100785.58
2019-01-20T10:32:56.507Z,100784.86
2019-01-20T10:35:26.616Z,100793.36
2019-01-20T10:37:56.807Z,100794.16
2019-01-20T10:40:25.352Z,100792.87
2019-01-20T10:42:53.810Z,100793.45
2019-01-20T10:45:22.340Z,100794.74
2019-01-20T10:47:50.920Z,100804.56
2019-01-20T10:50:19.695Z,100794.13
2019-01-20T10:52:48.402Z,100792.58
2019-01-20T10:55:16.931Z,100794.67
2019-01-20T10:57:45.354Z,100796.92
2019-01-20T11:00:17.094Z,100800.94
2019-01-20T11:02:45.525Z,100800.73
2019-01-20T11:05:14.393Z,100805.27
2019-01-20T11:07:42.834Z,100803.89
2019-01-20T11:10:11.984Z,100801.43
2019-01-20T11:12:41.009Z,100798.27
2019-01-20T11:15:12.554Z,100801.10
2019-01-20T11:17:41.008Z,100795.98
2019-01-20T11:20:15.532Z,100798.41
2019-01-20T11:22:44.012Z,100790.25
2019-01-20T11:25:18.103Z,100794.27
2019-01-20T11:27:59.660Z,100792.63
2019-01-20T11:30:30.778Z,100799.95
2019-01-20T11:32:58.659Z,100795.97
2019-01-20T11:35:27.122Z,100799.64
2019-01-20T11:37:55.719Z,100800.80
2019-01-20T11:40:30.377Z,100797.08
2019-01-20T11:42:59.082Z,100800.70
2019-01-20T11:45:30.177Z,100803.66
2019-01-20T11:47:58.611Z,100799.39
2019-01-20T11:50:29.969Z,100803.08
2019-01-20T11:52:58.425Z,100800.88
2019-01-20T11:55:26.866Z,100803.05
2019-01-20T11:57:55.311Z,100807.19
2019-01-20T12:00:26.819Z,100802.30
2019-01-20T12:02:55.279Z,100800.47
2019-01-20T12:05:23.824Z,100799.55
2019-01-20T12:07:52.230Z,100803.28
2019-01-20T12:10:20.818Z,100795.96
2019-01-20T12:12:50.906Z,100789.81
2019-01-20T12:15:19.384Z,100787.29
2019-01-20T12:17:47.948Z,100801.06
2019-01-20T12:20:17.419Z,100800.09
2019-01-20T12:22:45.928Z,100798.16
2019-01-20T12:25:19.106Z,100794.64
2019-01-20T12:27:47.586Z,100801.21
2019-01-20T12:30:19.306Z,100794.34
2019-01-20T12:32:47.820Z,100797.77
2019-01-20T12:35:16.481Z,100793.88
2019-01-20T12:37:44.948Z,100802.91
2019-01-20T12:40:19.241Z,100798.30
2019-01-20T12:42:47.766Z,100797.89
2019-01-20T12:45:16.357Z,100805.49
2019-01-20T12:47:44.876Z,100801.66
2019-01-20T12:50:16.522Z,100798.30
2019-01-20T12:52:45.066Z,100804.48
2019-01-20T12:55:17.021Z,100801.76
2019-01-20T12:57:45.560Z,100804.27
2019-01-20T13:00:17.127Z,100801.44
2019-01-20T13:02:45.908Z,100811.99
2019-01-20T13:05:14.613Z,100802.86
2019-01-20T13:07:43.096Z,100808.20
2019-01-20T13:10:19.132Z,100805.43
2019-01-20T13:12:47.761Z,100805.93
2019-01-20T13:15:23.738Z,100806.28
2019-01-20T13:17:52.256Z,100806.78
2019-01-20T13:20:25.855Z,100803.89
2019-01-20T13:22:54.352Z,100807.00
2019-01-20T13:25:25.211Z,100812.99
2019-01-20T13:27:53.717Z,100805.36
2019-01-20T13:30:26.988Z,100809.53
2019-01-20T13:32:55.459Z,100812.58
2019-01-20T13:35:24.741Z,100807.58
2019-01-20T13:37:56.813Z,100810.65
2019-01-20T13:40:31.118Z,100804.84
2019-01-20T13:42:59.552Z,100813.42
2019-01-20T13:45:28.010Z,100810.06
2019-01-20T13:47:56.433Z,100814.57
2019-01-20T13:50:24.889Z,100812.05
2019-01-20T13:52:53.401Z,100809.05
2019-01-20T13:55:21.882Z,100816.23
2019-01-20T13:57:50.339Z,100813.78
2019-01-20T14:00:26.333Z,100819.75
2019-01-20T14:02:55.327Z,100810.86
2019-01-20T14:05:23.783Z,100814.01
2019-01-20T14:07:52.204Z,100817.49
2019-01-20T14:10:22.664Z,100816.94
2019-01-20T14:12:51.149Z,100825.80
2019-01-20T14:15:19.745Z,100821.95
2019-01-20T14:17:48.334Z,100824.82
2019-01-20T14:20:22.311Z,100827.11
2019-01-20T14:22:50.890Z,100820.36
2019-01-20T14:25:30.418Z,100818.75
2019-01-20T14:27:58.851Z,100825.44
2019-01-20T14:30:30.064Z,100822.64
2019-01-20T14:32:59.406Z,100830.27
2019-01-20T14:35:28.080Z,100832.73
2019-01-20T14:37:56.576Z,100828.92
2019-01-20T14:40:25.103Z,100830.47
2019-01-20T14:42:54.161Z,100835.78
2019-01-20T14:45:22.761Z,100835.38
2019-01-20T14:47:51.324Z,100836.98
2019-01-20T14:50:25.264Z,100840.94
2019-01-20T14:52:53.882Z,100833.74
2019-01-20T14:55:23.275Z,100837.80
2019-01-20T14:57:51.778Z,100835.20
2019-01-20T15:00:29.250Z,100837.17
2019-01-20T15:02:57.892Z,100839.47
2019-01-20T15:05:26.404Z,100846.13
2019-01-20T15:07:54.886Z,100844.78
2019-01-20T15:10:23.390Z,100854.33
2019-01-20T15:12:51.830Z,100853.30
2019-01-20T15:15:23.308Z,100849.99
2019-01-20T15:17:51.762Z,100852.95
2019-01-20T15:20:20.284Z,100855.94
2019-01-20T15:22:48.876Z,100853.27
2019-01-20T15:25:19.776Z,100854.17
2019-01-20T15:27:49.054Z,100853.67
2019-01-20T15:30:29.427Z,100857.66
2019-01-20T15:32:58.821Z,100856.31
2019-01-20T15:35:27.299Z,100857.44
2019-01-20T15:37:55.736Z,100861.33
2019-01-20T15:40:25.725Z,100863.30
2019-01-20T15:42:54.406Z,100864.94
2019-01-20T15:45:24.009Z,100865.18
2019-01-20T15:47:52.802Z,100866.84
2019-01-20T15:50:23.515Z,100868.44
2019-01-20T15:52:51.994Z,100866.27
2019-01-20T15:55:20.390Z,100870.80
2019-01-20T15:57:48.880Z,100870.66
2019-01-20T16:00:22.660Z,100875.75
2019-01-20T16:02:51.338Z,100882.44
2019-01-20T16:05:20.342Z,100885.56
2019-01-20T16:07:48.835Z,100891.37
2019-01-20T16:10:17.919Z,100895.64
2019-01-20T16:12:47.340Z,100895.81
2019-01-20T16:15:27.670Z,100898.42
2019-01-20T16:17:56.480Z,100899.58
2019-01-20T16:20:26.174Z,100905.34
2019-01-20T16:22:54.743Z,100899.80
2019-01-20T16:25:26.092Z,100904.58
2019-01-20T16:27:54.760Z,100905.77
2019-01-20T16:30:26.209Z,100912.20
2019-01-20T16:32:54.667Z,100915.49
2019-01-20T16:35:24.458Z,100918.63
2019-01-20T16:37:53.066Z,100917.57
2019-01-20T16:40:23.765Z,100916.61
2019-01-20T16:42:52.220Z,100923.33
2019-01-20T16:45:23.655Z,100923.66
2019-01-20T16:47:52.089Z,100928.23
2019-01-20T16:50:23.055Z,100928.91
2019-01-20T16:52:54.652Z,100931.08
2019-01-20T16:55:21.821Z,100932.26
2019-01-20T16:57:50.287Z,100933.45
2019-01-20T17:00:24.219Z,100943.44
2019-01-20T17:02:52.885Z,100943.95
2019-01-20T17:05:21.411Z,100944.55
2019-01-20T17:07:49.925Z,100945.61
2019-01-20T17:10:24.064Z,100952.63
2019-01-20T17:12:52.592Z,100953.80
2019-01-20T17:15:29.893Z,100952.48
2019-01-20T17:17:58.444Z,100955.61
2019-01-20T17:20:26.981Z,100952.17
2019-01-20T17:22:55.846Z,100960.36
2019-01-20T17:25:24.330Z,100958.70
2019-01-20T17:27:52.799Z,100967.88
2019-01-20T17:30:24.258Z,100963.08
2019-01-20T17:32:53.438Z,100965.51
2019-01-20T17:35:21.857Z,100966.84
2019-01-20T17:37:51.713Z,100974.21
2019-01-20T17:40:23.190Z,100976.27
2019-01-20T17:42:51.858Z,100971.95
2019-01-20T17:45:26.262Z,100980.28
2019-01-20T17:47:54.738Z,100982.06
2019-01-20T17:50:28.874Z,100988.12
2019-01-20T17:52:58.908Z,100988.59
2019-01-20T17:55:28.235Z,100982.53
2019-01-20T17:57:56.973Z,100987.06
2019-01-20T18:00:33.729Z,100985.48
2019-01-20T18:03:02.832Z,100981.65
2019-01-20T18:05:31.340Z,100988.84
2019-01-20T18:07:59.796Z,100989.34
2019-01-20T18:10:28.208Z,100998.11
2019-01-20T18:12:56.821Z,100996.53
2019-01-20T18:15:26.665Z,100995.77
2019-01-20T18:17:55.272Z,101002.15
2019-01-20T18:20:29.432Z,100997.51
2019-01-20T18:22:58.194Z,101001.47
2019-01-20T18:25:26.755Z,101008.53
2019-01-20T18:27:55.333Z,101006.20
2019-01-20T18:30:26.811Z,101009.34
2019-01-20T18:32:55.292Z,101022.52
2019-01-20T18:35:25.069Z,101019.08
2019-01-20T18:37:53.566Z,101024.89
2019-01-20T18:40:23.705Z,101026.70
2019-01-20T18:42:52.305Z,101031.98
2019-01-20T18:45:23.124Z,101031.98
2019-01-20T18:47:51.638Z,101038.41
2019-01-20T18:50:23.011Z,101035.05
2019-01-20T18:52:51.565Z,101034.67
2019-01-20T18:55:20.057Z,101040.41
2019-01-20T18:57:48.492Z,101037.69
2019-01-20T19:00:35.070Z,101041.76
2019-01-20T19:03:03.606Z,101039.73
2019-01-20T19:05:32.103Z,101040.05
2019-01-20T19:08:00.640Z,101037.25
2019-01-20T19:10:29.078Z,101035.06
2019-01-20T19:12:57.506Z,101049.48
2019-01-20T19:15:26.064Z,101042.29
2019-01-20T19:17:54.571Z,101054.89
2019-01-20T19:20:27.402Z,101052.62
2019-01-20T19:22:57.809Z,101058.56
2019-01-20T19:25:26.257Z,101064.28
2019-01-20T19:27:55.131Z,101061.86
2019-01-20T19:30:35.550Z,101064.28
2019-01-20T19:33:04.438Z,101055.92
2019-01-20T19:35:32.946Z,101057.31
2019-01-20T19:38:01.464Z,101054.36
2019-01-20T19:40:29.890Z,101056.38
2019-01-20T19:42:58.401Z,101065.53
2019-01-20T19:45:27.415Z,101061.95
2019-01-20T19:47:55.931Z,101059.36
2019-01-20T19:50:25.607Z,101060.08
2019-01-20T19:52:54.049Z,101058.34
2019-01-20T19:55:25.154Z,101060.00
2019-01-20T19:57:53.764Z,101058.61
2019-01-20T20:00:24.365Z,101055.00
2019-01-20T20:02:52.868Z,101061.11
2019-01-20T20:05:22.679Z,101065.00
2019-01-20T20:07:52.592Z,101070.26
2019-01-20T20:10:26.458Z,101074.72
2019-01-20T20:12:56.330Z,101075.33
2019-01-20T20:15:26.641Z,101079.22
2019-01-20T20:17:55.225Z,101077.44
2019-01-20T20:20:24.306Z,101082.84
2019-01-20T20:22:53.181Z,101083.06
2019-01-20T20:25:23.658Z,101085.96
2019-01-20T20:27:52.953Z,101085.33
2019-01-20T20:30:27.393Z,101097.44
2019-01-20T20:32:55.814Z,101096.89
2019-01-20T20:35:24.362Z,101102.70
2019-01-20T20:37:52.939Z,101105.89
2019-01-20T20:40:21.867Z,101107.63
2019-01-20T20:42:50.303Z,101107.39
2019-01-20T20:45:21.832Z,101114.16
2019-01-20T20:47:50.356Z,101113.72
2019-01-20T20:50:19.392Z,101119.97
2019-01-20T20:52:47.939Z,101123.72
2019-01-20T20:55:16.519Z,101126.52
2019-01-20T20:57:45.329Z,101130.42
2019-01-20T21:00:28.458Z,101130.81
2019-01-20T21:02:57.146Z,101133.69
2019-01-20T21:05:25.674Z,101137.70
2019-01-20T21:07:57.197Z,101133.25
2019-01-20T21:10:25.725Z,101143.95
2019-01-20T21:12:54.185Z,101141.81
2019-01-20T21:15:25.582Z,101141.87
2019-01-20T21:17:54.550Z,101149.27
2019-01-20T21:20:23.924Z,101147.97
2019-01-20T21:22:52.373Z,101144.86
2019-01-20T21:25:20.897Z,101144.97
2019-01-20T21:27:49.376Z,101149.37
2019-01-20T21:30:23.488Z,101137.97
2019-01-20T21:32:52.004Z,101146.55
2019-01-20T21:35:20.798Z,101154.11
2019-01-20T21:37:49.350Z,101155.16
2019-01-20T21:40:19.203Z,101158.56
2019-01-20T21:42:48.235Z,101155.46
2019-01-20T21:45:18.637Z,101163.14
2019-01-20T21:47:47.481Z,101164.25
2019-01-20T21:50:24.525Z,101167.69
2019-01-20T21:52:52.962Z,101167.00
2019-01-20T21:55:21.498Z,101170.79
2019-01-20T21:57:49.943Z,101167.85
2019-01-20T22:00:24.099Z,101172.89
2019-01-20T22:02:52.553Z,101173.19
2019-01-20T22:05:22.790Z,101168.14
2019-01-20T22:07:51.296Z,101167.43
2019-01-20T22:10:21.828Z,101168.48
2019-01-20T22:12:50.271Z,101168.38
2019-01-20T22:15:19.896Z,101169.28
2019-01-20T22:17:49.914Z,101171.58
2019-01-20T22:20:20.182Z,101170.98
2019-01-20T22:22:48.787Z,101175.97
2019-01-20T22:25:17.799Z,101178.41
2019-01-20T22:27:46.375Z,101173.97
2019-01-20T22:30:17.521Z,101180.11
2019-01-20T22:32:45.966Z,101173.71
2019-01-20T22:35:14.580Z,101180.38
2019-01-20T22:37:43.094Z,101175.87
2019-01-20T22:40:14.666Z,101174.13
2019-01-20T22:42:43.181Z,101178.02
2019-01-20T22:45:14.408Z,101184.29
2019-01-20T22:47:42.921Z,101187.18
2019-01-20T22:50:13.482Z,101183.44
2019-01-20T22:52:42.068Z,101190.53
2019-01-20T22:55:12.866Z,101195.06
2019-01-20T22:57:41.374Z,101194.02
2019-01-20T23:00:32.645Z,101200.05
2019-01-20T23:03:01.087Z,101201.00
2019-01-20T23:05:29.528Z,101206.05
2019-01-20T23:07:58.005Z,101207.41
2019-01-20T23:10:26.462Z,101199.60
2019-01-20T23:12:54.895Z,101196.53
2019-01-20T23:15:23.350Z,101196.72
2019-01-20T23:17:51.855Z,101194.89
2019-01-20T23:20:20.387Z,101199.59
2019-01-20T23:22:48.824Z,101195.84
2019-01-20T23:25:17.273Z,101200.00
2019-01-20T23:27:45.794Z,101199.60
2019-01-20T23:30:16.047Z,101197.50
2019-01-20T23:32:44.476Z,101197.19
2019-01-20T23:35:12.985Z,101200.47
2019-01-20T23:37:41.454Z,101195.77
2019-01-20T23:40:17.511Z,101201.05
2019-01-20T23:42:45.968Z,101193.96
2019-01-20T23:45:14.549Z,101195.77
2019-01-20T23:47:43.111Z,101192.08
2019-01-20T23:50:16.564Z,101196.30
2019-01-20T23:52:45.092Z,101197.27
2019-01-20T23:55:14.449Z,101200.02
2019-01-20T23:57:42.908Z,101189.87
